createdAt,value
2023-04-09T00:00:01.561Z,7.40
2023-04-09T00:03:04.800Z,7.40
2023-04-09T00:06:08.060Z,7.43
2023-04-09T00:09:11.011Z,7.41
2023-04-09T00:12:15.630Z,7.47
2023-04-09T00:15:30.039Z,7.40
2023-04-09T00:18:40.367Z,7.42
2023-04-09T00:21:43.676Z,7.50
2023-04-09T00:24:46.472Z,7.49
2023-04-09T00:27:50.657Z,7.51
2023-04-09T00:30:53.651Z,7.50
2023-04-09T00:33:56.524Z,7.49
2023-04-09T00:36:59.321Z,7.56
2023-04-09T00:40:01.994Z,7.59
2023-04-09T00:43:06.748Z,7.57
2023-04-09T00:46:09.559Z,7.68
2023-04-09T00:49:12.369Z,7.81
2023-04-09T00:52:15.569Z,7.78
2023-04-09T00:55:19.750Z,7.74
2023-04-09T00:58:23.909Z,7.73
2023-04-09T01:01:26.730Z,7.74
2023-04-09T01:04:29.572Z,7.81
2023-04-09T01:07:43.463Z,7.85
2023-04-09T01:10:52.861Z,7.85
2023-04-09T01:14:06.235Z,7.78
2023-04-09T01:17:16.563Z,7.75
2023-04-09T01:20:28.484Z,7.77
2023-04-09T01:23:46.462Z,7.74
2023-04-09T01:26:58.306Z,7.72
2023-04-09T01:30:06.554Z,7.66
2023-04-09T01:33:12.577Z,7.73
2023-04-09T01:36:15.823Z,7.65
2023-04-09T01:39:18.986Z,7.69
2023-04-09T01:42:22.527Z,7.71
2023-04-09T01:45:27.268Z,7.79
2023-04-09T01:48:31.274Z,7.72
2023-04-09T01:51:34.312Z,7.73
2023-04-09T01:54:37.239Z,7.73
2023-04-09T01:57:39.915Z,7.71
2023-04-09T02:00:48.146Z,7.64
2023-04-09T02:03:57.997Z,7.66
2023-04-09T02:07:06.358Z,7.66
2023-04-09T02:10:12.034Z,7.70
2023-04-09T02:13:18.242Z,7.66
2023-04-09T02:16:23.692Z,7.68
2023-04-09T02:19:26.669Z,7.70
2023-04-09T02:22:30.022Z,7.81
2023-04-09T02:25:33.039Z,7.86
2023-04-09T02:28:35.890Z,7.85
2023-04-09T02:31:40.094Z,7.91
2023-04-09T02:34:43.081Z,7.85
2023-04-09T02:37:45.861Z,7.78
2023-04-09T02:40:48.633Z,7.77
2023-04-09T02:43:51.337Z,7.71
2023-04-09T02:46:55.477Z,7.65
2023-04-09T02:49:58.151Z,7.57
2023-04-09T02:53:00.861Z,7.50
2023-04-09T02:56:03.592Z,7.48
2023-04-09T02:59:06.462Z,7.52
2023-04-09T03:02:10.614Z,7.53
2023-04-09T03:05:13.453Z,7.58
2023-04-09T03:08:16.354Z,7.57
2023-04-09T03:11:19.043Z,7.59
2023-04-09T03:14:22.173Z,7.52
2023-04-09T03:17:27.211Z,7.44
2023-04-09T03:20:30.055Z,7.38
2023-04-09T03:23:34.980Z,7.37
2023-04-09T03:26:38.026Z,7.35
2023-04-09T03:29:40.931Z,7.29
2023-04-09T03:32:44.985Z,7.28
2023-04-09T03:35:47.765Z,7.22
2023-04-09T03:38:50.876Z,7.16
2023-04-09T03:41:53.700Z,7.23
2023-04-09T03:44:56.398Z,7.25
2023-04-09T03:48:00.689Z,7.22
2023-04-09T03:51:03.487Z,7.29
2023-04-09T03:54:06.183Z,7.32
2023-04-09T03:57:08.878Z,7.24
2023-04-09T04:00:12.296Z,7.27
2023-04-09T04:03:17.157Z,7.26
2023-04-09T04:06:20.019Z,7.23
2023-04-09T04:09:22.920Z,7.23
2023-04-09T04:12:25.867Z,7.26
2023-04-09T04:15:28.566Z,7.15
2023-04-09T04:18:32.604Z,7.15
2023-04-09T04:21:35.427Z,7.22
2023-04-09T04:24:38.213Z,7.16
2023-04-09T04:27:42.643Z,7.12
2023-04-09T04:30:45.498Z,7.15
2023-04-09T04:33:49.548Z,7.07
2023-04-09T04:36:52.241Z,7.03
2023-04-09T04:39:54.920Z,7.11
2023-04-09T04:42:57.620Z,7.02
2023-04-09T04:46:00.598Z,7.06
2023-04-09T04:49:05.171Z,7.15
2023-04-09T04:52:07.958Z,7.13
2023-04-09T04:55:11.147Z,7.12
2023-04-09T04:58:13.815Z,7.17
2023-04-09T05:01:16.554Z,7.14
2023-04-09T05:04:20.712Z,7.16
2023-04-09T05:07:23.362Z,7.23
2023-04-09T05:10:26.220Z,7.30
2023-04-09T05:13:28.897Z,7.35
2023-04-09T05:16:32.111Z,7.30
2023-04-09T05:19:37.198Z,7.29
2023-04-09T05:22:40.674Z,7.22
2023-04-09T05:25:43.579Z,7.27
2023-04-09T05:28:46.683Z,7.26
2023-04-09T05:31:49.606Z,7.24
2023-04-09T05:34:53.903Z,7.26
2023-04-09T05:37:57.021Z,7.30
2023-04-09T05:40:59.683Z,7.40
2023-04-09T05:44:02.508Z,7.48
2023-04-09T05:47:05.379Z,7.50
2023-04-09T05:50:10.474Z,7.56
2023-04-09T05:53:14.194Z,7.58
2023-04-09T05:56:17.455Z,7.54
2023-04-09T05:59:20.619Z,7.62
2023-04-09T06:02:23.605Z,7.71
2023-04-09T06:05:28.300Z,7.81
2023-04-09T06:08:31.086Z,7.91
2023-04-09T06:11:34.118Z,7.89
2023-04-09T06:14:36.921Z,8.03
2023-04-09T06:17:39.796Z,8.19
2023-04-09T06:20:44.189Z,8.23
2023-04-09T06:23:47.042Z,8.49
2023-04-09T06:26:49.910Z,8.78
2023-04-09T06:29:52.686Z,9.06
2023-04-09T06:32:55.725Z,9.37
2023-04-09T06:36:00.137Z,9.62
2023-04-09T06:39:03.362Z,10.01
2023-04-09T06:42:06.304Z,10.19
2023-04-09T06:45:09.994Z,10.60
2023-04-09T06:48:12.792Z,11.19
2023-04-09T06:51:17.189Z,11.66
2023-04-09T06:54:20.121Z,12.15
2023-04-09T06:57:22.829Z,12.90
2023-04-09T07:00:25.535Z,13.56
2023-04-09T07:03:28.824Z,13.97
2023-04-09T07:06:33.283Z,15.01
2023-04-09T07:09:36.483Z,15.25
2023-04-09T07:12:39.353Z,14.81
2023-04-09T07:15:42.681Z,14.23
2023-04-09T07:18:45.713Z,13.79
2023-04-09T07:21:49.880Z,13.14
2023-04-09T07:24:55.114Z,12.98
2023-04-09T07:27:58.029Z,12.97
2023-04-09T07:31:02.845Z,13.14
2023-04-09T07:34:06.212Z,13.04
2023-04-09T07:37:10.292Z,12.92
2023-04-09T07:40:13.547Z,13.02
2023-04-09T07:43:16.814Z,13.12
2023-04-09T07:46:21.223Z,13.39
2023-04-09T07:49:24.268Z,13.27
2023-04-09T07:52:28.561Z,13.30
2023-04-09T07:55:31.345Z,13.20
2023-04-09T07:58:34.131Z,13.06
2023-04-09T08:01:37.001Z,12.91
2023-04-09T08:04:39.961Z,12.44
2023-04-09T08:07:44.263Z,12.06
2023-04-09T08:10:47.033Z,12.43
2023-04-09T08:13:49.751Z,12.88
2023-04-09T08:16:52.501Z,13.10
2023-04-09T08:19:55.282Z,13.20
2023-04-09T08:22:59.569Z,13.34
2023-04-09T08:26:02.726Z,13.32
2023-04-09T08:29:05.597Z,13.32
2023-04-09T08:32:08.516Z,13.40
2023-04-09T08:35:11.428Z,13.46
2023-04-09T08:38:16.331Z,13.50
2023-04-09T08:41:20.895Z,13.49
2023-04-09T08:44:27.191Z,13.63
2023-04-09T08:47:30.463Z,13.74
2023-04-09T08:50:34.723Z,14.04
2023-04-09T08:53:40.405Z,14.33
2023-04-09T08:56:43.340Z,14.64
2023-04-09T08:59:46.636Z,14.74
2023-04-09T09:03:06.366Z,14.64
2023-04-09T09:06:22.014Z,14.64
2023-04-09T09:09:26.841Z,14.60
2023-04-09T09:12:38.490Z,14.84
2023-04-09T09:15:41.604Z,14.68
2023-04-09T09:18:45.618Z,14.55
2023-04-09T09:21:57.441Z,14.40
2023-04-09T09:25:01.718Z,14.28
2023-04-09T09:28:09.438Z,14.19
2023-04-09T09:31:13.680Z,14.26
2023-04-09T09:34:17.717Z,14.11
2023-04-09T09:37:28.083Z,13.81
2023-04-09T09:40:32.900Z,13.57
2023-04-09T09:43:42.391Z,13.59
2023-04-09T09:46:45.115Z,13.16
2023-04-09T09:49:49.574Z,12.98
2023-04-09T09:52:59.874Z,12.68
2023-04-09T09:56:06.726Z,12.72
2023-04-09T09:59:20.393Z,12.74
2023-04-09T10:02:26.947Z,13.03
2023-04-09T10:05:30.620Z,13.42
2023-04-09T10:08:35.988Z,13.57
2023-04-09T10:11:42.554Z,13.20
2023-04-09T10:14:46.686Z,13.02
2023-04-09T10:17:50.099Z,13.17
2023-04-09T10:20:58.777Z,13.39
2023-04-09T10:24:05.658Z,13.95
2023-04-09T10:27:15.736Z,14.67
2023-04-09T10:30:34.867Z,15.25
2023-04-09T10:33:38.657Z,15.62
2023-04-09T10:36:44.841Z,15.71
2023-04-09T10:39:48.958Z,15.76
2023-04-09T10:42:55.127Z,15.42
2023-04-09T10:45:58.969Z,15.57
2023-04-09T10:49:13.507Z,15.79
2023-04-09T10:52:16.477Z,15.77
2023-04-09T10:55:38.012Z,15.20
2023-04-09T10:58:42.240Z,14.91
2023-04-09T11:01:53.676Z,14.78
2023-04-09T11:05:06.451Z,14.83
2023-04-09T11:08:10.966Z,14.34
2023-04-09T11:11:13.878Z,14.17
2023-04-09T11:14:22.101Z,14.16
2023-04-09T11:17:24.971Z,14.04
2023-04-09T11:20:27.792Z,14.08
2023-04-09T11:23:31.492Z,14.31
2023-04-09T11:26:37.004Z,14.51
2023-04-09T11:29:42.411Z,14.66
2023-04-09T11:32:45.535Z,14.62
2023-04-09T11:35:49.149Z,14.91
2023-04-09T11:38:52.143Z,15.09
2023-04-09T11:41:55.417Z,15.08
2023-04-09T11:45:00.960Z,14.98
2023-04-09T11:48:04.446Z,15.07
2023-04-09T11:51:07.618Z,15.03
2023-04-09T11:54:10.325Z,15.17
2023-04-09T11:57:13.081Z,15.49
2023-04-09T12:00:18.951Z,15.78
2023-04-09T12:03:29.338Z,15.98
2023-04-09T12:06:32.658Z,16.25
2023-04-09T12:09:35.553Z,16.46
2023-04-09T12:12:42.888Z,16.75
2023-04-09T12:15:50.582Z,17.01
2023-04-09T12:18:55.829Z,17.14
2023-04-09T12:21:58.910Z,16.85
2023-04-09T12:25:01.733Z,16.91
2023-04-09T12:28:05.731Z,17.08
2023-04-09T12:31:12.073Z,16.84
2023-04-09T12:34:15.266Z,17.05
2023-04-09T12:37:18.161Z,17.32
2023-04-09T12:40:21.961Z,17.21
2023-04-09T12:43:24.693Z,17.45
2023-04-09T12:46:29.270Z,17.54
2023-04-09T12:49:33.091Z,17.55
2023-04-09T12:52:36.302Z,17.43
2023-04-09T12:55:40.364Z,17.21
2023-04-09T12:58:44.269Z,17.12
2023-04-09T13:01:48.650Z,17.34
2023-04-09T13:04:52.885Z,17.61
2023-04-09T13:07:55.881Z,17.78
2023-04-09T13:10:58.657Z,18.00
2023-04-09T13:14:01.643Z,17.96
2023-04-09T13:17:05.830Z,17.79
2023-04-09T13:20:09.864Z,17.82
2023-04-09T13:23:12.672Z,17.99
2023-04-09T13:26:15.591Z,18.16
2023-04-09T13:29:18.881Z,18.04
2023-04-09T13:32:24.249Z,17.68
2023-04-09T13:35:27.210Z,17.80
2023-04-09T13:38:30.027Z,17.70
2023-04-09T13:41:33.920Z,17.39
2023-04-09T13:44:36.732Z,17.32
2023-04-09T13:47:41.126Z,17.52
2023-04-09T13:50:43.952Z,17.79
2023-04-09T13:53:48.213Z,17.97
2023-04-09T13:56:51.703Z,17.99
2023-04-09T13:59:54.557Z,18.08
2023-04-09T14:02:58.941Z,17.99
2023-04-09T14:06:02.771Z,18.40
2023-04-09T14:09:05.655Z,18.33
2023-04-09T14:12:08.562Z,17.96
2023-04-09T14:15:11.931Z,18.16
2023-04-09T14:18:16.094Z,18.49
2023-04-09T14:21:19.128Z,18.77
2023-04-09T14:24:23.188Z,18.88
2023-04-09T14:27:26.001Z,18.90
2023-04-09T14:30:28.930Z,18.85
2023-04-09T14:33:33.162Z,18.63
2023-04-09T14:36:36.224Z,18.46
2023-04-09T14:39:39.366Z,18.42
2023-04-09T14:42:42.602Z,18.47
2023-04-09T14:45:45.571Z,18.23
2023-04-09T14:48:49.576Z,17.89
2023-04-09T14:51:52.425Z,17.18
2023-04-09T14:54:55.275Z,16.59
2023-04-09T14:57:58.108Z,16.28
2023-04-09T15:01:01.218Z,16.14
2023-04-09T15:04:08.376Z,15.86
2023-04-09T15:07:11.844Z,15.73
2023-04-09T15:10:15.489Z,15.70
2023-04-09T15:13:18.226Z,15.97
2023-04-09T15:16:25.958Z,16.34
2023-04-09T15:19:32.223Z,16.56
2023-04-09T15:22:34.960Z,16.69
2023-04-09T15:25:37.775Z,16.62
2023-04-09T15:28:40.614Z,16.74
2023-04-09T15:31:43.439Z,16.91
2023-04-09T15:34:47.602Z,16.54
2023-04-09T15:37:50.343Z,16.19
2023-04-09T15:40:53.155Z,15.90
2023-04-09T15:43:55.994Z,15.48
2023-04-09T15:46:58.754Z,15.16
2023-04-09T15:50:02.879Z,15.31
2023-04-09T15:53:05.653Z,15.64
2023-04-09T15:56:10.364Z,15.96
2023-04-09T15:59:16.316Z,16.19
2023-04-09T16:02:20.536Z,16.45
2023-04-09T16:05:24.801Z,16.55
2023-04-09T16:08:27.782Z,16.22
2023-04-09T16:11:30.603Z,15.86
2023-04-09T16:14:33.422Z,15.67
2023-04-09T16:17:40.781Z,15.44
2023-04-09T16:20:45.562Z,15.43
2023-04-09T16:23:48.753Z,15.54
2023-04-09T16:26:51.475Z,15.81
2023-04-09T16:29:54.200Z,15.81
2023-04-09T16:32:56.938Z,15.65
2023-04-09T16:36:01.109Z,15.37
2023-04-09T16:39:04.042Z,15.38
2023-04-09T16:42:07.055Z,15.23
2023-04-09T16:45:10.919Z,15.10
2023-04-09T16:48:13.938Z,15.08
2023-04-09T16:51:18.283Z,15.02
2023-04-09T16:54:21.234Z,14.83
2023-04-09T16:57:24.029Z,14.81
2023-04-09T17:00:27.561Z,14.78
2023-04-09T17:03:30.684Z,14.75
2023-04-09T17:06:34.829Z,14.74
2023-04-09T17:09:37.571Z,14.67
2023-04-09T17:12:40.203Z,14.60
2023-04-09T17:15:43.117Z,14.48
2023-04-09T17:18:46.892Z,14.52
2023-04-09T17:21:51.219Z,14.46
2023-04-09T17:24:53.858Z,14.25
2023-04-09T17:27:56.644Z,14.18
2023-04-09T17:30:59.367Z,14.02
2023-04-09T17:34:02.129Z,13.95
2023-04-09T17:37:06.304Z,13.96
2023-04-09T17:40:10.682Z,13.86
2023-04-09T17:43:14.169Z,13.76
2023-04-09T17:46:18.070Z,13.66
2023-04-09T17:49:22.329Z,13.54
2023-04-09T17:52:26.457Z,13.58
2023-04-09T17:55:29.118Z,13.52
2023-04-09T17:58:32.881Z,13.43
2023-04-09T18:01:35.672Z,13.37
2023-04-09T18:04:38.670Z,13.29
2023-04-09T18:07:42.845Z,13.14
2023-04-09T18:10:58.584Z,13.11
2023-04-09T18:14:11.811Z,13.08
2023-04-09T18:17:16.278Z,13.03
2023-04-09T18:20:19.507Z,12.96
2023-04-09T18:23:23.493Z,12.99
2023-04-09T18:26:26.487Z,12.95
2023-04-09T18:29:29.318Z,12.88
2023-04-09T18:32:32.228Z,12.90
2023-04-09T18:35:35.079Z,12.81
2023-04-09T18:38:39.439Z,12.81
2023-04-09T18:41:43.185Z,12.86
2023-04-09T18:44:45.965Z,12.80
2023-04-09T18:47:48.621Z,12.75
2023-04-09T18:50:52.090Z,12.72
2023-04-09T18:53:56.124Z,12.60
2023-04-09T18:56:58.870Z,12.56
2023-04-09T19:00:03.205Z,12.47
2023-04-09T19:03:06.217Z,12.44
2023-04-09T19:06:14.368Z,12.37
2023-04-09T19:09:19.002Z,12.34
2023-04-09T19:12:21.613Z,12.27
2023-04-09T19:15:26.763Z,12.19
2023-04-09T19:18:29.580Z,12.12
2023-04-09T19:21:32.262Z,12.13
2023-04-09T19:24:36.546Z,12.06
2023-04-09T19:27:39.762Z,12.06
2023-04-09T19:30:42.451Z,12.11
2023-04-09T19:33:45.162Z,12.12
2023-04-09T19:36:47.967Z,12.09
2023-04-09T19:39:53.467Z,12.08
2023-04-09T19:42:56.146Z,11.93
2023-04-09T19:45:58.799Z,11.92
2023-04-09T19:49:02.064Z,11.85
2023-04-09T19:52:06.221Z,11.82
2023-04-09T19:55:11.144Z,11.75
2023-04-09T19:58:13.853Z,11.65
2023-04-09T20:01:16.925Z,11.50
2023-04-09T20:04:19.810Z,11.49
2023-04-09T20:07:22.440Z,11.49
2023-04-09T20:10:26.591Z,11.43
2023-04-09T20:13:29.518Z,11.38
2023-04-09T20:16:32.265Z,11.41
2023-04-09T20:19:34.914Z,11.41
2023-04-09T20:22:42.814Z,11.22
2023-04-09T20:25:46.994Z,11.01
2023-04-09T20:28:49.697Z,10.82
2023-04-09T20:31:52.434Z,10.62
2023-04-09T20:34:55.078Z,10.37
2023-04-09T20:37:57.657Z,10.25
2023-04-09T20:41:02.553Z,10.10
2023-04-09T20:44:06.010Z,9.91
2023-04-09T20:47:08.683Z,9.83
2023-04-09T20:50:12.211Z,9.71
2023-04-09T20:53:15.188Z,9.65
2023-04-09T20:56:19.154Z,9.56
2023-04-09T20:59:21.730Z,9.42
2023-04-09T21:02:24.452Z,9.26
2023-04-09T21:05:27.253Z,9.17
2023-04-09T21:08:30.795Z,9.03
2023-04-09T21:11:34.744Z,8.93
2023-04-09T21:14:37.597Z,8.94
2023-04-09T21:17:40.256Z,8.88
2023-04-09T21:20:44.314Z,8.86
2023-04-09T21:23:47.010Z,8.76
2023-04-09T21:26:52.361Z,8.66
2023-04-09T21:29:55.357Z,8.59
2023-04-09T21:32:59.596Z,8.65
2023-04-09T21:36:04.321Z,8.70
2023-04-09T21:39:07.018Z,8.61
2023-04-09T21:42:11.002Z,8.57
2023-04-09T21:45:13.817Z,8.53
2023-04-09T21:48:17.294Z,8.61
2023-04-09T21:51:19.963Z,8.68
2023-04-09T21:54:22.554Z,8.81
2023-04-09T21:57:26.683Z,8.84
2023-04-09T22:00:29.450Z,8.95
2023-04-09T22:03:32.626Z,8.99
2023-04-09T22:06:35.480Z,9.04
2023-04-09T22:09:38.891Z,9.08
2023-04-09T22:12:42.886Z,9.19
2023-04-09T22:15:45.566Z,9.23
2023-04-09T22:18:48.257Z,9.22
2023-04-09T22:21:51.196Z,9.23
2023-04-09T22:24:53.852Z,9.37
2023-04-09T22:27:57.822Z,9.46
2023-04-09T22:31:01.331Z,9.42
2023-04-09T22:34:17.206Z,9.41
2023-04-09T22:37:23.134Z,9.40
2023-04-09T22:40:25.971Z,9.49
2023-04-09T22:43:29.969Z,9.37
2023-04-09T22:46:34.624Z,9.35
2023-04-09T22:49:37.580Z,9.40
2023-04-09T22:52:40.342Z,9.34
2023-04-09T22:55:45.184Z,9.23
2023-04-09T22:58:49.200Z,9.13
2023-04-09T23:01:51.932Z,9.04
2023-04-09T23:04:54.601Z,9.00
2023-04-09T23:07:57.263Z,9.03
2023-04-09T23:10:59.898Z,9.09
2023-04-09T23:14:03.874Z,9.10
2023-04-09T23:17:06.521Z,9.12
2023-04-09T23:20:11.298Z,8.98
2023-04-09T23:23:14.004Z,8.85
2023-04-09T23:26:16.610Z,8.65
2023-04-09T23:29:20.733Z,8.50
2023-04-09T23:32:23.461Z,8.41
2023-04-09T23:35:26.137Z,8.32
2023-04-09T23:38:28.812Z,8.17
2023-04-09T23:41:31.443Z,7.99
2023-04-09T23:44:35.498Z,7.96
2023-04-09T23:47:39.326Z,7.92
2023-04-09T23:50:42.768Z,7.80
2023-04-09T23:53:45.498Z,7.71
2023-04-09T23:56:48.155Z,7.67
2023-04-09T23:59:52.241Z,7.57
